This is the latest recevied weather packets stored in our database for station/object PA0HHN. If no packets are shown the sender has not sent any weather packets the latest 10 day(s).
| Time | Temp. | Humidity | Pressure | Rain* | Wind** | Luminosity | Snow |
|---|---|---|---|---|---|---|---|
| 1778241601 | 17.22° C | 30% | 1013.3 hPa | - | - | - | - |
| 1778240702 | 17.22° C | 36% | 1013.5 hPa | - | - | - | - |
| 1778239801 | 17.22° C | 35% | 1013.5 hPa | - | - | - | - |
| 1778238900 | 16.11° C | 35% | 1013.5 hPa | - | - | - | - |
| 1778238002 | 17.22° C | 36% | 1013.7 hPa | - | - | - | - |
| 1778237102 | 16.11° C | 40% | 1013.5 hPa | - | - | - | - |
| 1778236200 | 16.11° C | 40% | 1013.6 hPa | - | - | - | - |
| 1778235300 | 16.11° C | 43% | 1013.4 hPa | - | - | - | - |
| 1778234402 | 15° C | 42% | 1013.6 hPa | - | - | - | - |
| 1778233501 | 15° C | 46% | 1013.8 hPa | - | - | - | - |
| 1778232602 | 15° C | 47% | 1013.6 hPa | - | - | - | - |
| 1778231702 | 15° C | 49% | 1014.1 hPa | - | - | - | - |
| 1778230802 | 15° C | 52% | 1013.7 hPa | - | - | - | - |
| 1778229901 | 13.89° C | 53% | 1014 hPa | - | - | - | - |
| 1778229002 | 13.89° C | 54% | 1014.2 hPa | - | - | - | - |
| 1778228102 | 12.78° C | 62% | 1013.7 hPa | - | - | - | - |
| 1778227202 | 12.78° C | 67% | 1014.1 hPa | - | - | - | - |
| 1778226300 | 12.78° C | 68% | 1014.1 hPa | - | - | - | - |
| 1778225400 | 12.78° C | 76% | 1014 hPa | - | - | - | - |
| 1778224502 | 12.22° C | 77% | 1014 hPa | - | - | - | - |
| 1778218201 | 7.78° C | 99% | 1013.4 hPa | - | - | - | - |
| 1778216404 | 5° C | 99% | 1013.3 hPa | - | - | - | - |
| 1778215500 | 5° C | 99% | 1013.2 hPa | - | - | - | - |
| 1778214602 | 5° C | 99% | 1013 hPa | - | - | - | - |
| 1778213702 | 5° C | 99% | 1013.1 hPa | - | - | - | - |
* Rain since midnight (hover to see other rain measurements)
** Current wind speed in m/s (hover to see current wind gust speed)